Terminal Aerodrome Forecast
Issued by NWS

Home | Current Version | Previous Version | Text Only | Print | Product List | Glossary On
Versions: 1 2 3 4 5 6 7 8 9 10 11 12
190
FTUS45 KABQ 291726
TAFFMN
TAF
KFMN 291726Z 2918/3018 13007KT P6SM SKC
     FM291900 29010KT P6SM FEW100
     FM300200 VRB05KT P6SM FEW100
     FM300700 08009KT P6SM FEW120
     FM301700 12006KT P6SM SKC=

USA.gov is the U.S. government's official web portal to all federal, state and local government web resources and services.